Time;durP1;ratioP1;P1;durP2;ratioP2;P2;SDS_P1;SDS_P2;PMS_P1;PMS_P2;Temp;Humidity;BMP_temperature;BMP_pressure;BME280_temperature;BME280_humidity;BME280_pressure;Samples;Min_cycle;Max_cycle;Signal;HPM_P1;HPM_P2
2023/11/14 00:00:23;;;;;;;5.45;2.17;;;12.20;1.00;;;;;;6210462;23;20016;-75
2023/11/14 00:02:51;;;;;;;6.10;2.25;;;12.20;1.00;;;;;;6185195;23;20016;-75
2023/11/14 00:05:18;;;;;;;6.82;2.10;;;12.20;1.00;;;;;;6209058;23;20020;-75
2023/11/14 00:07:45;;;;;;;6.63;2.15;;;12.20;1.50;;;;;;6209693;23;20086;-75
2023/11/14 00:10:12;;;;;;;9.40;2.45;;;12.10;3.40;;;;;;6236643;23;20031;-75
2023/11/14 00:12:39;;;;;;;4.30;1.55;;;12.10;4.30;;;;;;6209985;23;20111;-75
2023/11/14 00:15:06;;;;;;;10.15;2.70;;;12.10;6.30;;;;;;6237060;23;20020;-75
2023/11/14 00:17:34;;;;;;;5.38;2.13;;;12.10;7.80;;;;;;6237022;23;20020;-75
2023/11/14 00:20:01;;;;;;;4.65;1.75;;;12.10;10.90;;;;;;6208861;23;20497;-74
2023/11/14 00:22:29;;;;;;;9.00;2.00;;;12.10;10.10;;;;;;6234619;23;20078;-75
2023/11/14 00:24:56;;;;;;;7.28;2.30;;;12.10;13.10;;;;;;6184817;23;20313;-75
2023/11/14 00:27:23;;;;;;;8.27;2.17;;;12.10;14.50;;;;;;6210483;23;20028;-75
2023/11/14 00:29:50;;;;;;;7.78;1.92;;;12.10;15.00;;;;;;6234854;23;20024;-75
2023/11/14 00:32:17;;;;;;;7.63;2.72;;;12.10;16.70;;;;;;6209656;23;20118;-75
2023/11/14 00:34:44;;;;;;;5.57;1.90;;;12.10;17.20;;;;;;6208713;23;20020;-75
2023/11/14 00:37:14;;;;;;;3.85;1.90;;;12.10;18.00;;;;;;6210002;23;20388;-75
2023/11/14 00:39:41;;;;;;;5.85;2.05;;;12.10;20.90;;;;;;6210130;23;20346;-76
2023/11/14 00:42:07;;;;;;;6.15;1.65;;;12.10;21.20;;;;;;6185163;23;20085;-75
2023/11/14 00:44:34;;;;;;;5.35;1.85;;;12.10;20.80;;;;;;6185187;23;20020;-75
2023/11/14 00:47:01;;;;;;;13.48;3.95;;;12.10;21.20;;;;;;6210686;23;20028;-74
2023/11/14 00:49:28;;;;;;;5.93;2.10;;;12.20;20.90;;;;;;6184444;23;20096;-75
2023/11/14 00:51:57;;;;;;;6.80;2.72;;;12.20;21.00;;;;;;6210078;23;20031;-75
2023/11/14 00:54:24;;;;;;;5.68;2.55;;;12.20;21.40;;;;;;6186800;23;20020;-75
2023/11/14 00:56:51;;;;;;;6.25;2.50;;;12.20;21.70;;;;;;6186903;23;20024;-75
2023/11/14 00:59:19;;;;;;;6.10;2.25;;;12.20;23.80;;;;;;6207353;23;20016;-75
2023/11/14 01:01:46;;;;;;;4.65;1.88;;;12.20;23.70;;;;;;6206825;23;20579;-75
2023/11/14 01:04:17;;;;;;;6.43;2.00;;;12.20;23.60;;;;;;6232878;23;20028;-75
2023/11/14 01:06:44;;;;;;;4.70;1.98;;;12.20;23.00;;;;;;6181654;23;20332;-75
2023/11/14 01:09:11;;;;;;;3.55;1.60;;;12.20;22.00;;;;;;6232822;23;20024;-75
2023/11/14 01:11:38;;;;;;;6.45;2.20;;;12.20;22.30;;;;;;6207170;23;20437;-75
2023/11/14 01:14:05;;;;;;;4.57;1.70;;;12.20;22.00;;;;;;6207853;23;20027;-74
2023/11/14 01:16:32;;;;;;;5.30;1.40;;;12.20;22.60;;;;;;6233092;23;20024;-75
2023/11/14 01:18:59;;;;;;;4.95;1.90;;;12.10;23.30;;;;;;6234911;23;20178;-75
2023/11/14 01:21:26;;;;;;;8.35;2.13;;;12.10;24.30;;;;;;6181254;23;20124;-76
2023/11/14 01:23:53;;;;;;;5.10;2.00;;;12.10;24.40;;;;;;6233768;23;20035;-75
2023/11/14 01:26:19;;;;;;;9.70;3.17;;;12.10;25.50;;;;;;6232636;23;20028;-75
2023/11/14 01:28:46;;;;;;;7.60;2.30;;;12.10;25.70;;;;;;6207865;23;20024;-75
2023/11/14 01:31:21;;;;;;;3.95;1.63;;;12.10;27.90;;;;;;6207353;23;20031;-75
2023/11/14 01:33:48;;;;;;;5.38;2.28;;;12.10;27.90;;;;;;6207428;23;20030;-75
2023/11/14 01:36:15;;;;;;;5.18;1.85;;;12.10;28.60;;;;;;6205692;23;20456;-75
2023/11/14 01:38:42;;;;;;;5.22;1.40;;;12.10;29.40;;;;;;6232613;23;20078;-75
2023/11/14 01:41:09;;;;;;;4.60;1.67;;;12.10;29.00;;;;;;6182528;23;20082;-75
2023/11/14 01:43:45;;;;;;;5.97;1.63;;;12.10;29.10;;;;;;6185090;23;20020;-75
2023/11/14 01:46:15;;;;;;;8.48;2.42;;;12.00;28.30;;;;;;6211338;23;20104;-75
2023/11/14 01:48:44;;;;;;;6.28;1.98;;;12.10;28.10;;;;;;6211110;23;20111;-75
2023/11/14 01:51:11;;;;;;;3.72;1.55;;;12.10;38.70;;;;;;6209293;23;20090;-75
2023/11/14 01:53:38;;;;;;;5.20;1.92;;;12.00;28.00;;;;;;6211382;23;20079;-75
2023/11/14 01:56:06;;;;;;;3.33;1.48;;;12.00;26.80;;;;;;6211352;23;20079;-75
2023/11/14 01:58:33;;;;;;;7.65;2.28;;;12.00;28.00;;;;;;6211267;23;20345;-75
2023/11/14 02:01:00;;;;;;;4.93;1.67;;;12.00;27.70;;;;;;6236023;23;20027;-75
2023/11/14 02:03:30;;;;;;;5.75;1.88;;;12.00;28.20;;;;;;6211110;23;20547;-75
2023/11/14 02:05:57;;;;;;;5.75;2.38;;;12.00;28.40;;;;;;6209083;23;20059;-75
2023/11/14 02:08:25;;;;;;;6.93;2.40;;;12.00;28.70;;;;;;6185610;23;20027;-75
2023/11/14 02:10:52;;;;;;;6.07;2.03;;;12.00;28.80;;;;;;6210384;23;20024;-75
2023/11/14 02:13:19;;;;;;;5.50;1.67;;;12.00;29.90;;;;;;6211311;23;20024;-75
2023/11/14 02:15:46;;;;;;;5.28;1.60;;;12.00;29.80;;;;;;6210258;23;20476;-75
2023/11/14 02:18:17;;;;;;;4.95;1.65;;;12.00;32.20;;;;;;6186230;23;20765;-75
2023/11/14 02:20:47;;;;;;;4.55;1.88;;;12.00;34.20;;;;;;6184821;23;20479;-75
2023/11/14 02:23:17;;;;;;;2.47;1.00;;;11.90;37.80;;;;;;6210300;23;20023;-76
2023/11/14 02:25:47;;;;;;;4.65;1.40;;;11.90;39.40;;;;;;6210762;23;20027;-75
2023/11/14 02:28:14;;;;;;;6.00;1.88;;;11.90;44.70;;;;;;6211015;23;20474;-75
2023/11/14 02:30:41;;;;;;;6.18;1.70;;;11.90;49.10;;;;;;6235810;23;20020;-75
2023/11/14 02:33:08;;;;;;;6.28;1.90;;;11.90;52.80;;;;;;6210997;23;20115;-75
2023/11/14 02:35:35;;;;;;;4.57;1.85;;;11.90;55.10;;;;;;6233711;23;20562;-75
2023/11/14 02:38:02;;;;;;;6.57;1.77;;;11.90;54.90;;;;;;6209697;23;20024;-75
2023/11/14 02:40:29;;;;;;;5.53;2.08;;;11.90;54.50;;;;;;6238434;23;20085;-75
2023/11/14 02:42:56;;;;;;;5.43;2.42;;;11.90;55.50;;;;;;6213463;23;20027;-75
2023/11/14 02:45:23;;;;;;;8.23;2.40;;;11.90;57.90;;;;;;6211867;23;20020;-75
2023/11/14 02:47:50;;;;;;;5.38;1.70;;;11.90;62.10;;;;;;6237172;23;20090;-75
2023/11/14 02:50:25;;;;;;;9.52;2.40;;;11.90;64.20;;;;;;6209867;23;20020;-75
2023/11/14 02:52:51;;;;;;;5.95;2.13;;;11.90;69.70;;;;;;6237138;23;20420;-76
2023/11/14 02:55:18;;;;;;;5.07;1.70;;;11.90;72.60;;;;;;6210703;23;20030;-75
2023/11/14 02:57:45;;;;;;;7.28;1.95;;;11.90;79.20;;;;;;6211078;23;20024;-75
2023/11/14 03:00:16;;;;;;;11.13;2.63;;;11.90;82.30;;;;;;6236001;23;20021;-75
2023/11/14 03:02:43;;;;;;;5.90;2.00;;;11.90;84.70;;;;;;6210773;23;20024;-75
2023/11/14 03:05:11;;;;;;;7.40;2.05;;;11.90;85.00;;;;;;6234903;23;20026;-75
2023/11/14 03:07:38;;;;;;;6.32;2.25;;;11.90;87.30;;;;;;6235949;23;20063;-75
2023/11/14 03:10:06;;;;;;;5.18;2.05;;;11.90;87.10;;;;;;6235307;23;20020;-75
2023/11/14 03:12:32;;;;;;;6.65;2.28;;;12.00;90.40;;;;;;6210531;23;20024;-76
2023/11/14 03:14:59;;;;;;;6.68;2.28;;;12.00;90.30;;;;;;6235689;23;20086;-75
2023/11/14 03:17:28;;;;;;;6.03;2.17;;;12.00;90.90;;;;;;6185907;23;20093;-75
2023/11/14 03:19:55;;;;;;;3.83;1.30;;;12.00;91.70;;;;;;6234415;23;20362;-75
2023/11/14 03:22:22;;;;;;;9.23;2.15;;;12.00;92.60;;;;;;6210280;23;20468;-76
2023/11/14 03:24:49;;;;;;;6.38;2.33;;;12.00;93.80;;;;;;6209965;23;20024;-75
2023/11/14 03:27:16;;;;;;;6.07;2.13;;;12.00;95.00;;;;;;6211251;23;20086;-74
2023/11/14 03:29:44;;;;;;;4.57;1.60;;;12.00;95.20;;;;;;6185750;23;20320;-75
2023/11/14 03:32:10;;;;;;;5.30;2.45;;;12.00;95.50;;;;;;6210333;23;20036;-75
2023/11/14 03:34:37;;;;;;;6.50;1.70;;;12.00;97.60;;;;;;6234492;23;20027;-75
2023/11/14 03:37:04;;;;;;;3.83;1.50;;;12.00;97.80;;;;;;6185350;23;20059;-75
2023/11/14 03:39:33;;;;;;;4.40;1.65;;;12.00;98.70;;;;;;6210062;23;20027;-75
2023/11/14 03:42:00;;;;;;;8.73;2.20;;;12.00;99.80;;;;;;6210273;23;20055;-75
2023/11/14 03:44:27;;;;;;;5.55;1.90;;;12.00;99.20;;;;;;6210212;23;20023;-75
2023/11/14 03:46:54;;;;;;;5.15;1.75;;;12.10;97.40;;;;;;6185338;23;20448;-75
2023/11/14 03:49:21;;;;;;;5.43;1.70;;;12.10;95.50;;;;;;6235405;23;20024;-75
2023/11/14 03:51:48;;;;;;;7.10;2.45;;;12.10;94.90;;;;;;6233698;23;20024;-75
2023/11/14 03:54:14;;;;;;;4.10;1.60;;;12.10;93.20;;;;;;6210001;23;20036;-75
2023/11/14 03:56:41;;;;;;;7.30;2.30;;;12.10;92.00;;;;;;6209918;23;20394;-75
2023/11/14 03:59:08;;;;;;;5.60;1.58;;;12.10;91.20;;;;;;6210340;23;20787;-75
2023/11/14 04:01:36;;;;;;;4.88;1.52;;;12.10;90.80;;;;;;6209982;23;20024;-76
2023/11/14 04:04:03;;;;;;;3.35;1.30;;;12.10;89.30;;;;;;6210141;23;20028;-76
2023/11/14 04:06:31;;;;;;;7.15;1.92;;;12.10;88.40;;;;;;6183890;23;20027;-75
2023/11/14 04:08:58;;;;;;;7.30;2.40;;;12.10;90.10;;;;;;6234930;23;20032;-76
2023/11/14 04:11:26;;;;;;;8.02;1.83;;;12.10;89.80;;;;;;6210190;23;20501;-75
2023/11/14 04:13:52;;;;;;;5.30;1.58;;;12.10;89.20;;;;;;6237897;23;20083;-75
2023/11/14 04:16:19;;;;;;;3.05;1.23;;;12.10;90.10;;;;;;6235453;23;20095;-75
2023/11/14 04:18:47;;;;;;;3.05;1.23;;;12.10;90.20;;;;;;6210451;23;20495;-75
2023/11/14 04:21:19;;;;;;;3.28;1.20;;;12.10;90.60;;;;;;6232842;23;20035;-75
2023/11/14 04:23:46;;;;;;;3.95;1.35;;;12.20;90.60;;;;;;6235167;23;20102;-75
2023/11/14 04:26:14;;;;;;;3.20;1.30;;;12.20;89.90;;;;;;6185261;23;20613;-75
2023/11/14 04:28:42;;;;;;;4.00;1.70;;;12.30;85.90;;;;;;6237476;23;20031;-75
2023/11/14 04:31:09;;;;;;;4.85;1.30;;;12.30;83.20;;;;;;6211613;23;20047;-76
2023/11/14 04:33:35;;;;;;;7.78;1.92;;;12.30;79.00;;;;;;6212306;23;20070;-75
2023/11/14 04:36:03;;;;;;;5.18;1.63;;;12.30;77.30;;;;;;6237469;23;20099;-76
2023/11/14 04:38:30;;;;;;;5.45;1.48;;;12.30;71.50;;;;;;6211606;23;20089;-75
2023/11/14 04:40:57;;;;;;;3.28;1.35;;;12.30;68.20;;;;;;6187474;23;20058;-75
2023/11/14 04:43:24;;;;;;;5.20;1.67;;;12.30;67.50;;;;;;6212445;23;20107;-76
2023/11/14 04:45:51;;;;;;;4.20;1.50;;;12.30;66.20;;;;;;6187004;23;20012;-75
2023/11/14 04:48:17;;;;;;;5.22;1.50;;;12.30;64.10;;;;;;6187324;23;20375;-76
2023/11/14 04:50:44;;;;;;;5.85;1.75;;;12.30;61.80;;;;;;6186103;23;20039;-75
2023/11/14 04:53:11;;;;;;;5.93;1.90;;;12.30;62.60;;;;;;6237904;23;20031;-76
2023/11/14 04:55:39;;;;;;;5.18;1.30;;;12.30;63.00;;;;;;6237283;23;20109;-76
2023/11/14 04:58:08;;;;;;;2.80;1.13;;;12.30;61.40;;;;;;6239089;23;20103;-75
2023/11/14 05:00:35;;;;;;;4.50;1.23;;;12.30;59.90;;;;;;6237195;23;20449;-75
2023/11/14 05:03:05;;;;;;;5.05;1.58;;;12.30;61.30;;;;;;6211986;23;20031;-75
2023/11/14 05:05:32;;;;;;;3.60;1.45;;;12.30;61.70;;;;;;6236062;23;20030;-75
2023/11/14 05:07:59;;;;;;;3.17;1.55;;;12.30;60.10;;;;;;6187028;23;20031;-76
2023/11/14 05:10:26;;;;;;;2.42;1.05;;;12.30;61.60;;;;;;6212135;23;20016;-76
2023/11/14 05:12:53;;;;;;;3.00;1.63;;;12.30;63.90;;;;;;6187431;23;20024;-76
2023/11/14 05:15:19;;;;;;;3.38;1.02;;;12.30;66.00;;;;;;6211510;23;20466;-76
2023/11/14 05:17:46;;;;;;;4.30;1.30;;;12.20;67.50;;;;;;6237118;23;20024;-75
2023/11/14 05:20:13;;;;;;;5.03;1.30;;;12.20;68.40;;;;;;6210336;23;20050;-75
2023/11/14 05:22:40;;;;;;;3.53;1.80;;;12.20;71.40;;;;;;6186732;23;20052;-75
2023/11/14 05:25:10;;;;;;;2.55;1.27;;;12.10;73.40;;;;;;6238230;23;20058;-76
2023/11/14 05:27:37;;;;;;;4.03;1.55;;;12.10;76.00;;;;;;6237267;23;20022;-75
2023/11/14 05:30:12;;;;;;;4.43;1.50;;;12.10;80.40;;;;;;6187070;23;20036;-76
2023/11/14 05:32:39;;;;;;;4.25;1.50;;;12.10;86.90;;;;;;6213017;23;20032;-75
2023/11/14 05:35:06;;;;;;;3.20;1.27;;;12.10;90.80;;;;;;6237349;23;20024;-75
2023/11/14 05:37:33;;;;;;;4.10;1.35;;;12.10;92.10;;;;;;6236848;23;20017;-76
2023/11/14 05:40:00;;;;;;;4.05;1.70;;;12.10;95.20;;;;;;6209738;23;20031;-76
2023/11/14 05:42:26;;;;;;;3.95;1.13;;;12.10;97.20;;;;;;6186692;23;20028;-75
2023/11/14 05:44:53;;;;;;;2.97;1.13;;;12.10;99.10;;;;;;6211501;23;20020;-76
2023/11/14 05:47:20;;;;;;;4.30;1.52;;;12.10;99.90;;;;;;6210625;23;20012;-76
2023/11/14 05:49:48;;;;;;;4.20;1.65;;;12.10;99.90;;;;;;6182110;23;20024;-75
2023/11/14 05:52:15;;;;;;;4.78;1.73;;;12.10;99.90;;;;;;6234081;23;20699;-76
2023/11/14 05:54:41;;;;;;;3.30;1.40;;;12.20;99.90;;;;;;6233595;23;20476;-75
2023/11/14 05:57:08;;;;;;;2.70;1.30;;;12.20;99.50;;;;;;6235772;23;20016;-75
2023/11/14 05:59:35;;;;;;;3.25;1.10;;;12.20;99.90;;;;;;6207055;23;20090;-75
2023/11/14 06:02:02;;;;;;;6.53;2.05;;;12.20;99.90;;;;;;6183850;23;20024;-75
2023/11/14 06:04:29;;;;;;;3.95;1.08;;;12.20;99.90;;;;;;6201166;23;20492;-77
2023/11/14 06:06:59;;;;;;;8.93;2.25;;;12.20;99.90;;;;;;6180660;23;20119;-77
2023/11/14 06:09:25;;;;;;;5.10;1.90;;;12.20;99.90;;;;;;6232653;23;20479;-77
2023/11/14 06:11:53;;;;;;;3.72;1.35;;;12.10;99.90;;;;;;6234924;23;20300;-77
2023/11/14 06:14:20;;;;;;;4.60;1.50;;;12.10;99.90;;;;;;6235133;23;20051;-77
2023/11/14 06:16:47;;;;;;;6.53;1.85;;;12.10;99.90;;;;;;6233684;23;20043;-77
2023/11/14 06:19:14;;;;;;;4.40;1.48;;;12.10;99.90;;;;;;6232929;23;20024;-77
2023/11/14 06:21:44;;;;;;;6.15;1.63;;;12.10;99.90;;;;;;6206475;23;20352;-77
2023/11/14 06:24:13;;;;;;;3.20;1.25;;;12.10;99.90;;;;;;6233595;23;20028;-77
2023/11/14 06:26:40;;;;;;;3.58;1.42;;;12.10;99.90;;;;;;6231745;23;20020;-77
2023/11/14 06:29:07;;;;;;;4.28;1.42;;;12.00;99.90;;;;;;6206247;23;20318;-77
2023/11/14 06:31:34;;;;;;;4.40;1.45;;;12.00;99.90;;;;;;6231967;23;20090;-76
2023/11/14 06:34:01;;;;;;;4.53;1.33;;;12.10;99.90;;;;;;6234118;23;20028;-77
2023/11/14 06:36:28;;;;;;;3.55;1.35;;;12.00;99.90;;;;;;6208544;23;20086;-76
2023/11/14 06:38:55;;;;;;;4.32;1.38;;;12.00;99.90;;;;;;6183817;23;20024;-76
2023/11/14 06:41:22;;;;;;;4.60;1.33;;;12.00;99.90;;;;;;6182584;23;20136;-77
2023/11/14 06:43:49;;;;;;;3.40;1.40;;;11.90;99.90;;;;;;6230937;23;20031;-77
2023/11/14 06:46:16;;;;;;;5.07;1.65;;;11.90;99.90;;;;;;6233454;23;20020;-77
2023/11/14 06:48:43;;;;;;;3.83;1.50;;;11.90;99.90;;;;;;6236341;23;20829;-77
2023/11/14 06:51:11;;;;;;;5.63;1.65;;;11.90;99.90;;;;;;6235112;23;20020;-77
2023/11/14 06:53:38;;;;;;;6.60;1.70;;;11.90;99.90;;;;;;6208824;23;20024;-77
2023/11/14 06:56:06;;;;;;;3.95;1.17;;;11.90;99.90;;;;;;6233631;23;20030;-77
2023/11/14 06:58:34;;;;;;;2.65;1.17;;;11.90;99.90;;;;;;6232571;23;20344;-77
2023/11/14 07:01:02;;;;;;;3.17;0.90;;;11.90;99.90;;;;;;6205955;23;20047;-77
2023/11/14 07:03:31;;;;;;;1.77;0.85;;;11.90;99.90;;;;;;6178354;23;20047;-77
2023/11/14 07:05:58;;;;;;;3.58;1.52;;;11.90;99.90;;;;;;6198962;23;20457;-77
2023/11/14 07:08:25;;;;;;;3.08;1.35;;;11.80;99.90;;;;;;6198871;23;20344;-77
2023/11/14 07:10:52;;;;;;;3.42;1.15;;;11.80;99.90;;;;;;6205306;23;20043;-77
2023/11/14 07:13:19;;;;;;;3.67;1.25;;;11.80;99.90;;;;;;6234076;23;20262;-76
2023/11/14 07:15:47;;;;;;;3.72;1.27;;;11.70;99.90;;;;;;6202671;23;20027;-77
2023/11/14 07:18:14;;;;;;;3.42;1.10;;;11.70;99.90;;;;;;6206113;23;20029;-76
2023/11/14 07:20:41;;;;;;;1.70;0.88;;;11.70;99.90;;;;;;6228919;23;20031;-77
2023/11/14 07:23:08;;;;;;;2.05;1.10;;;11.70;99.90;;;;;;6232066;23;20105;-77
2023/11/14 07:25:38;;;;;;;2.58;0.82;;;11.70;99.90;;;;;;6182617;23;20074;-77
2023/11/14 07:28:05;;;;;;;2.55;1.10;;;11.70;99.90;;;;;;6234379;23;20027;-77
2023/11/14 07:30:33;;;;;;;2.92;1.15;;;11.70;99.90;;;;;;6234525;23;20078;-77
2023/11/14 07:33:01;;;;;;;2.33;0.98;;;11.70;99.90;;;;;;6235445;23;20030;-76
2023/11/14 07:35:28;;;;;;;3.30;1.13;;;11.70;99.90;;;;;;6208600;23;20095;-77
2023/11/14 07:37:55;;;;;;;4.63;1.35;;;11.70;99.90;;;;;;6236174;23;20020;-77
2023/11/14 07:40:22;;;;;;;3.33;1.00;;;11.70;99.90;;;;;;6209686;23;20432;-77
2023/11/14 07:42:50;;;;;;;4.32;1.80;;;11.70;99.90;;;;;;6235068;23;20020;-77
2023/11/14 07:45:18;;;;;;;3.25;1.20;;;11.80;99.90;;;;;;6237057;23;20305;-77
2023/11/14 07:47:45;;;;;;;1.85;1.00;;;11.80;99.90;;;;;;6210442;23;20020;-77
2023/11/14 07:50:13;;;;;;;2.08;0.88;;;11.80;99.90;;;;;;6208329;23;20028;-77
2023/11/14 07:52:41;;;;;;;1.55;1.00;;;11.80;99.90;;;;;;6234163;23;20020;-76
2023/11/14 07:55:11;;;;;;;3.50;1.58;;;11.80;99.90;;;;;;6233406;23;20244;-75
2023/11/14 07:57:38;;;;;;;2.60;1.50;;;11.90;99.90;;;;;;6207389;23;20101;-75
2023/11/14 08:00:07;;;;;;;3.70;1.15;;;11.90;99.90;;;;;;6209423;23;20123;-75
2023/11/14 08:02:36;;;;;;;4.22;1.40;;;12.00;99.90;;;;;;6232185;23;20388;-75
2023/11/14 08:05:03;;;;;;;2.95;1.05;;;12.00;99.90;;;;;;6203797;23;20024;-75
2023/11/14 08:07:30;;;;;;;2.70;1.23;;;12.10;99.90;;;;;;6232317;23;20024;-75
2023/11/14 08:09:57;;;;;;;2.92;0.93;;;12.20;99.90;;;;;;6236020;23;20021;-76
2023/11/14 08:12:24;;;;;;;4.95;1.40;;;12.20;99.90;;;;;;6184634;23;20522;-76
2023/11/14 08:14:51;;;;;;;5.88;1.65;;;12.30;99.90;;;;;;6184084;23;20432;-75
2023/11/14 08:17:18;;;;;;;4.50;1.65;;;12.30;99.90;;;;;;6207064;23;20016;-76
2023/11/14 08:19:45;;;;;;;4.90;1.25;;;12.30;99.90;;;;;;6228314;23;20019;-76
2023/11/14 08:22:12;;;;;;;5.88;1.67;;;12.40;99.90;;;;;;6231914;23;20099;-75
2023/11/14 08:24:39;;;;;;;4.57;1.70;;;12.40;99.90;;;;;;6179873;23;20032;-76
2023/11/14 08:27:06;;;;;;;4.57;1.65;;;12.50;99.90;;;;;;6230262;23;20078;-76
2023/11/14 08:29:35;;;;;;;3.45;1.30;;;12.50;99.90;;;;;;6206932;23;20135;-75
2023/11/14 08:32:04;;;;;;;5.47;1.85;;;12.50;99.90;;;;;;6184107;23;20016;-75
2023/11/14 08:34:33;;;;;;;2.47;1.23;;;12.50;99.90;;;;;;6208841;23;20372;-76
2023/11/14 08:37:00;;;;;;;3.55;1.50;;;12.60;99.90;;;;;;6184237;23;20027;-76
2023/11/14 08:39:27;;;;;;;3.05;1.30;;;12.60;99.90;;;;;;6183600;23;20028;-76
2023/11/14 08:41:57;;;;;;;3.72;1.25;;;12.60;99.90;;;;;;6208057;23;20016;-75
2023/11/14 08:44:24;;;;;;;3.78;1.05;;;12.70;99.90;;;;;;6230874;23;20020;-76
2023/11/14 08:46:52;;;;;;;5.10;1.15;;;12.70;99.90;;;;;;6230084;23;20024;-75
2023/11/14 08:49:20;;;;;;;3.45;0.95;;;12.70;99.90;;;;;;6232398;23;20099;-76
2023/11/14 08:51:49;;;;;;;3.97;1.20;;;12.80;99.90;;;;;;6229916;23;20464;-75
2023/11/14 08:54:15;;;;;;;4.78;1.58;;;12.80;99.90;;;;;;6208971;23;20035;-76
2023/11/14 08:56:43;;;;;;;3.75;1.10;;;12.80;99.90;;;;;;6209222;23;20027;-76
2023/11/14 08:59:12;;;;;;;2.70;1.05;;;12.80;99.90;;;;;;6210118;23;20392;-76
2023/11/14 09:01:39;;;;;;;4.60;1.42;;;12.80;99.90;;;;;;6234678;23;20070;-76
2023/11/14 09:04:10;;;;;;;3.40;1.42;;;12.80;99.90;;;;;;6210034;23;20242;-76
2023/11/14 09:06:37;;;;;;;5.50;1.92;;;12.80;99.90;;;;;;6232759;23;20087;-76
2023/11/14 09:09:04;;;;;;;4.55;1.20;;;12.80;99.90;;;;;;6209051;23;20027;-76
2023/11/14 09:11:31;;;;;;;5.22;1.23;;;12.90;99.90;;;;;;6209385;23;20109;-76
2023/11/14 09:14:02;;;;;;;2.95;1.08;;;12.90;99.90;;;;;;6210663;23;20024;-76
2023/11/14 09:16:29;;;;;;;1.95;1.25;;;12.90;99.90;;;;;;6186847;23;20024;-76
2023/11/14 09:18:57;;;;;;;2.58;1.33;;;12.90;99.90;;;;;;6211427;23;20039;-75
2023/11/14 09:21:26;;;;;;;4.00;1.10;;;12.90;99.90;;;;;;6235987;23;20059;-76
2023/11/14 09:23:54;;;;;;;4.22;1.30;;;12.90;99.90;;;;;;6208744;23;20349;-76
2023/11/14 09:26:21;;;;;;;3.55;1.45;;;12.90;99.90;;;;;;6206926;23;20028;-76
2023/11/14 09:28:48;;;;;;;2.97;1.60;;;12.90;99.90;;;;;;6208415;23;20070;-76
2023/11/14 09:31:15;;;;;;;4.78;1.52;;;12.90;99.90;;;;;;6208745;23;20476;-75
2023/11/14 09:33:42;;;;;;;2.13;0.98;;;12.90;99.90;;;;;;6205540;23;20090;-75
2023/11/14 09:36:09;;;;;;;2.13;0.88;;;13.00;99.90;;;;;;6176084;23;20016;-76
2023/11/14 09:38:38;;;;;;;2.85;0.98;;;12.90;99.90;;;;;;6226491;23;20020;-75
2023/11/14 09:41:06;;;;;;;2.70;0.90;;;13.00;99.90;;;;;;6200736;23;20314;-76
2023/11/14 09:43:34;;;;;;;4.78;1.27;;;13.00;99.90;;;;;;6177645;23;20035;-75
2023/11/14 09:46:01;;;;;;;1.75;0.90;;;13.00;99.90;;;;;;6174946;23;20356;-76
2023/11/14 09:48:28;;;;;;;2.45;0.98;;;13.00;99.90;;;;;;6225436;23;20355;-75
2023/11/14 09:50:55;;;;;;;1.52;0.77;;;13.00;99.90;;;;;;6201128;23;20027;-75
2023/11/14 09:53:27;;;;;;;2.88;1.05;;;13.00;99.90;;;;;;6202247;23;20027;-76
2023/11/14 09:55:54;;;;;;;5.85;1.60;;;13.00;99.90;;;;;;6227086;23;20055;-75
2023/11/14 09:58:21;;;;;;;3.53;1.55;;;13.00;99.90;;;;;;6227740;23;20483;-75
2023/11/14 10:00:49;;;;;;;2.30;0.90;;;13.00;99.90;;;;;;6227859;23;20024;-75
2023/11/14 10:03:19;;;;;;;2.72;1.30;;;13.00;99.90;;;;;;6227470;23;20505;-75
2023/11/14 10:05:46;;;;;;;1.98;0.95;;;13.00;99.90;;;;;;6202002;23;20024;-76
2023/11/14 10:08:15;;;;;;;2.53;1.45;;;13.00;99.90;;;;;;6228899;23;20016;-75
2023/11/14 10:11:09;;;;;;;1.92;0.82;;;13.10;99.90;;;;;;6227460;23;20368;-76
2023/11/14 10:13:36;;;;;;;1.50;0.60;;;13.10;99.90;;;;;;6225593;23;20024;-75
2023/11/14 10:16:20;;;;;;;3.25;1.13;;;13.10;99.90;;;;;;6200201;23;20024;-75
2023/11/14 10:18:49;;;;;;;3.40;1.25;;;13.10;99.90;;;;;;6228703;23;20028;-74
2023/11/14 10:21:34;;;;;;;1.90;0.88;;;13.10;99.90;;;;;;6227257;23;20024;-74
2023/11/14 10:24:02;;;;;;;1.83;0.75;;;13.10;99.90;;;;;;6202500;23;20387;-73
2023/11/14 10:26:29;;;;;;;1.65;0.88;;;13.10;99.90;;;;;;6204633;23;20024;-80
2023/11/14 10:29:00;;;;;;;2.33;1.13;;;13.20;99.90;;;;;;6202310;23;20483;-74
2023/11/14 10:31:34;;;;;;;1.55;0.80;;;13.20;99.90;;;;;;6210405;23;20023;-74
2023/11/14 10:34:06;;;;;;;2.75;1.05;;;13.30;99.90;;;;;;6235766;23;20035;-74
2023/11/14 10:36:47;;;;;;;1.92;1.10;;;13.30;99.90;;;;;;6210322;23;20043;-74
2023/11/14 10:39:14;;;;;;;0.82;0.63;;;13.30;99.90;;;;;;6181939;23;20016;-74
2023/11/14 10:41:41;;;;;;;3.58;1.15;;;13.30;99.90;;;;;;6206453;23;20024;-74
2023/11/14 10:44:09;;;;;;;1.92;0.80;;;13.30;99.90;;;;;;6206807;23;20024;-74
2023/11/14 10:46:36;;;;;;;2.90;1.30;;;13.40;99.90;;;;;;6208306;23;20471;-74
2023/11/14 10:49:08;;;;;;;5.70;1.85;;;13.30;99.90;;;;;;6186281;23;20098;-74
2023/11/14 10:51:36;;;;;;;3.33;1.25;;;13.30;99.90;;;;;;6184521;23;20086;-73
2023/11/14 10:54:06;;;;;;;4.88;1.55;;;13.30;99.90;;;;;;6209858;23;20666;-74
2023/11/14 10:56:35;;;;;;;2.63;1.10;;;13.30;1.00;;;;;;6235598;23;20020;-74
2023/11/14 10:59:15;;;;;;;3.38;0.93;;;13.20;1.00;;;;;;6213368;23;20074;-74
2023/11/14 11:01:46;;;;;;;3.03;1.13;;;13.20;44.90;;;;;;6185314;23;20060;-74
2023/11/14 11:04:14;;;;;;;2.63;1.00;;;13.20;99.90;;;;;;6210326;23;20099;-74
2023/11/14 11:06:41;;;;;;;3.10;1.13;;;13.10;99.90;;;;;;6233259;23;20023;-74
2023/11/14 11:09:10;;;;;;;2.30;0.98;;;13.10;99.90;;;;;;6210312;23;20047;-74
2023/11/14 11:11:45;;;;;;;1.73;0.90;;;13.10;1.00;;;;;;6185245;23;20027;-74
2023/11/14 11:14:14;;;;;;;4.18;0.90;;;13.00;1.00;;;;;;6206528;23;20089;-74
2023/11/14 11:16:45;;;;;;;1.48;0.73;;;13.00;98.00;;;;;;6181033;23;20043;-75
2023/11/14 11:19:21;;;;;;;2.15;1.45;;;13.00;99.90;;;;;;6184844;23;20035;-74
2023/11/14 11:22:03;;;;;;;1.42;0.60;;;12.90;99.90;;;;;;6235005;23;20390;-74
2023/11/14 11:24:30;;;;;;;2.03;0.80;;;12.90;1.00;;;;;;6232119;23;20062;-74
2023/11/14 11:27:20;;;;;;;2.83;0.82;;;12.90;1.00;;;;;;6232971;23;20022;-74
2023/11/14 11:29:54;;;;;;;0.55;0.47;;;12.80;99.90;;;;;;6230895;23;20527;-74
2023/11/14 11:32:40;;;;;;;1.33;0.65;;;12.80;97.00;;;;;;6206246;23;20034;-74
2023/11/14 11:35:16;;;;;;;1.85;0.60;;;12.70;99.90;;;;;;6234217;23;20390;-74
2023/11/14 11:37:48;;;;;;;1.77;0.80;;;12.60;99.90;;;;;;6235715;23;20012;-73
2023/11/14 11:40:17;;;;;;;1.08;0.70;;;12.50;1.00;;;;;;6209241;23;20440;-72
2023/11/14 11:42:44;;;;;;;1.98;0.90;;;12.50;99.90;;;;;;6234830;23;20028;-74
2023/11/14 11:45:36;;;;;;;2.03;0.75;;;12.40;99.90;;;;;;6234331;23;20027;-73
2023/11/14 11:48:03;;;;;;;5.47;1.73;;;12.30;99.90;;;;;;6236939;23;20020;-75
2023/11/14 11:50:32;;;;;;;2.10;0.88;;;12.20;99.90;;;;;;6208582;23;20020;-74
2023/11/14 11:53:06;;;;;;;2.45;0.75;;;12.10;90.80;;;;;;6234195;23;20543;-75
2023/11/14 11:55:35;;;;;;;0.85;0.45;;;12.10;99.90;;;;;;6210058;23;20120;-74
2023/11/14 11:58:08;;;;;;;2.03;0.80;;;12.00;1.00;;;;;;6209974;23;20047;-75
2023/11/14 12:00:35;;;;;;;2.05;0.88;;;12.00;1.00;;;;;;6184971;23;20070;-74
2023/11/14 12:03:03;;;;;;;2.58;0.90;;;11.90;97.60;;;;;;6185029;23;20026;-74
2023/11/14 12:05:31;;;;;;;1.42;0.82;;;11.80;99.90;;;;;;6208384;23;20100;-74
2023/11/14 12:07:59;;;;;;;2.70;1.13;;;11.70;99.90;;;;;;6235740;23;20032;-75
2023/11/14 12:10:26;;;;;;;1.75;0.85;;;11.60;99.90;;;;;;6233300;23;20082;-75
2023/11/14 12:12:56;;;;;;;1.58;0.75;;;11.60;99.90;;;;;;6230673;23;20094;-76
2023/11/14 12:15:25;;;;;;;2.72;0.98;;;11.50;99.90;;;;;;6230975;23;20023;-75
2023/11/14 12:17:53;;;;;;;2.28;0.80;;;11.40;99.90;;;;;;6235918;23;20480;-76
2023/11/14 12:20:21;;;;;;;2.00;0.95;;;11.40;1.00;;;;;;6234924;23;20053;-75
2023/11/14 12:22:49;;;;;;;1.33;0.50;;;11.30;1.00;;;;;;6233711;23;20024;-75
2023/11/14 12:25:18;;;;;;;1.52;0.90;;;11.30;27.20;;;;;;6204779;23;20136;-76
2023/11/14 12:27:55;;;;;;;3.05;0.75;;;11.30;49.60;;;;;;6230579;23;20032;-75
2023/11/14 12:30:24;;;;;;;3.22;0.90;;;11.30;92.80;;;;;;6235911;23;20066;-75
2023/11/14 12:33:09;;;;;;;4.10;1.38;;;11.30;99.90;;;;;;6236164;23;20561;-76
2023/11/14 12:35:57;;;;;;;2.17;1.00;;;11.20;99.90;;;;;;6208139;23;20052;-76
2023/11/14 12:38:35;;;;;;;1.90;1.05;;;11.20;99.90;;;;;;6233986;23;20020;-76
2023/11/14 12:41:15;;;;;;;2.53;1.20;;;11.10;99.90;;;;;;6209385;23;20086;-75
2023/11/14 12:43:43;;;;;;;2.80;1.08;;;10.90;23.00;;;;;;6235214;23;20070;-75
2023/11/14 12:46:10;;;;;;;3.70;0.80;;;10.70;60.80;;;;;;6235898;23;20517;-77
2023/11/14 12:48:36;;;;;;;2.28;0.68;;;10.50;89.40;;;;;;6234975;23;20522;-76
2023/11/14 12:51:03;;;;;;;1.67;0.50;;;10.40;27.40;;;;;;6236735;23;20343;-76
2023/11/14 12:53:31;;;;;;;4.13;0.80;;;10.40;99.90;;;;;;6238026;23;20081;-76